Historyczne dane pomiarowe

Dodano dane terminowe – wersja testowa.

Dane z okresu 1951-2019

Wersja bazy: 1.34 [2019-03-16, lista zmian], aktualizacja planowana na 2019-04-15

Dane meteo z obszaru Polski uzyskane na podstawie danych udostępnionych przez Instytut Meteorologii i Gospodarki Wodnej – Państwowy Instytut Badawczy.

 

Wybierz Datę:    

       

TemperaturaWilgotnośćWiatrCiśnienieOpadyŚniegCzas trwania zjawisk
 Stacja t tx tn tng RH VA  wxwx mslp ppp RRR   cm mm wxwxwxwxwxwxwx
2010-02-25 4.3 11.1 0.4 -0.6-------- 0.0------------
2010-02-26 4.6 8.3 1.5 -1.0-------- 0.4------------
2010-02-27 5.9 9.7 3.5 2.5-------- 0.0------------
2010-02-28 6.1 10.7 1.0 -0.5-------- 0.0------------
2010-03-01 5.8 9.9 3.0 2.0-------- 0.0------------
2010-03-02 2.5 6.3 0.0 -1.6-------- 0.0------------
2010-03-03 1.5 4.6 -0.5 -4.7-------- 0.0------------
2010-03-04 -0.8 4.9 -4.3 -8.0-------- 0.1------------
2010-03-05 -3.9 -0.7 -5.9 -7.4-------- 0.1------------
2010-03-06 -5.4 0.9-10.4-11.7-------- 0.0------------
2010-03-07 -4.2 1.7 -9.3-10.9-------- 0.0------------
2010-03-08 -2.7 1.9 -5.3 -7.4-------- 0.0------------
2010-03-09 -4.7 3.3-10.5-11.7-------- 0.0------------
2010-03-10 -3.2 4.4 -8.9-10.4-------- 0.0------------
2010-03-11 -2.1 5.3 -7.4 -9.8-------- 0.0------------
2010-03-12 -0.5 2.4 -4.5 -7.7-------- 3.8------------
2010-03-13 2.3 4.3 1.0 0.8-------- 2.1------------
2010-03-14 2.1 5.8 -0.5 -0.5-------- 19.4------------
2010-03-15 -0.1 1.9 -1.9 -1.9-------- 0.9-- 16---------
2010-03-16 -0.3 4.6 -3.9 -4.4-------- 0.0-- 10---------
2010-03-17 3.9 8.3 -0.4 -1.5-------- 0.0------------
2010-03-18 8.4 14.4 3.8 0.5-------- 0.0------------
2010-03-19 10.3 17.8 3.8 0.4-------- 0.0------------
2010-03-20 11.5 15.8 8.4 5.4-------- 0.2------------
2010-03-21 12.7 16.4 11.1 9.4-------- 1.4------------
2010-03-22 6.9 11.2 4.5 0.5-------- 0.0------------
2010-03-23 7.5 16.2 0.1 -1.8-------- 0.0------------
2010-03-24 6.7 16.0 -1.5 -3.7-------- 0.0------------
2010-03-25 11.3 20.3 4.9 3.2-------- 0.0------------
2010-03-26 13.5 23.0 6.4 1.0-------- 0.0------------
208.9 ms

 

Źródłem pochodzenia danych jest Instytut Meteorologii i Gospodarki Wodnej – Państwowy Instytut Badawczy. Dane Instytutu Meteorologii i Gospodarki Wodnej – Państwowego Instytutu Badawczego zostały przetworzone.

Dane źródłowe można odnaleźć na stronie https://dane.imgw.pl